sensor_id;sensor_type;location;lat;lon;timestamp;P1;durP1;ratioP1;P2;durP2;ratioP2
60086;SDS011;45960;53.630;55.972;2023-05-23T00:00:22;22.42;;;13.30;;
60086;SDS011;45960;53.630;55.972;2023-05-23T00:01:24;25.55;;;14.13;;
60086;SDS011;45960;53.630;55.972;2023-05-23T00:02:25;23.13;;;13.95;;
60086;SDS011;45960;53.630;55.972;2023-05-23T00:03:26;25.58;;;13.82;;
60086;SDS011;45960;53.630;55.972;2023-05-23T00:04:28;23.42;;;15.05;;
60086;SDS011;45960;53.630;55.972;2023-05-23T00:05:30;24.23;;;13.75;;
60086;SDS011;45960;53.630;55.972;2023-05-23T00:06:31;28.20;;;14.50;;
60086;SDS011;45960;53.630;55.972;2023-05-23T00:07:33;34.53;;;14.75;;
60086;SDS011;45960;53.630;55.972;2023-05-23T00:08:34;24.92;;;13.50;;
60086;SDS011;45960;53.630;55.972;2023-05-23T00:09:36;25.20;;;13.02;;
60086;SDS011;45960;53.630;55.972;2023-05-23T00:10:37;26.08;;;14.25;;
60086;SDS011;45960;53.630;55.972;2023-05-23T00:11:38;26.65;;;14.57;;
60086;SDS011;45960;53.630;55.972;2023-05-23T00:12:39;30.92;;;14.50;;
60086;SDS011;45960;53.630;55.972;2023-05-23T00:13:42;23.85;;;13.80;;
60086;SDS011;45960;53.630;55.972;2023-05-23T00:14:43;23.55;;;14.25;;
60086;SDS011;45960;53.630;55.972;2023-05-23T00:15:44;29.17;;;15.95;;
60086;SDS011;45960;53.630;55.972;2023-05-23T00:16:46;25.13;;;13.43;;
60086;SDS011;45960;53.630;55.972;2023-05-23T00:17:49;29.95;;;14.27;;
60086;SDS011;45960;53.630;55.972;2023-05-23T00:18:50;26.20;;;13.73;;
60086;SDS011;45960;53.630;55.972;2023-05-23T00:19:51;24.80;;;13.90;;
60086;SDS011;45960;53.630;55.972;2023-05-23T00:20:52;23.75;;;13.63;;
60086;SDS011;45960;53.630;55.972;2023-05-23T00:21:53;27.52;;;14.80;;
60086;SDS011;45960;53.630;55.972;2023-05-23T00:22:57;22.45;;;13.20;;
60086;SDS011;45960;53.630;55.972;2023-05-23T00:23:59;23.45;;;13.75;;
60086;SDS011;45960;53.630;55.972;2023-05-23T00:25:01;23.88;;;12.57;;
60086;SDS011;45960;53.630;55.972;2023-05-23T00:26:05;22.45;;;13.90;;
60086;SDS011;45960;53.630;55.972;2023-05-23T00:27:06;23.00;;;14.07;;
60086;SDS011;45960;53.630;55.972;2023-05-23T00:28:07;25.23;;;12.52;;
60086;SDS011;45960;53.630;55.972;2023-05-23T00:29:08;26.85;;;12.52;;
60086;SDS011;45960;53.630;55.972;2023-05-23T00:30:15;28.65;;;13.38;;
60086;SDS011;45960;53.630;55.972;2023-05-23T00:31:16;26.35;;;13.68;;
60086;SDS011;45960;53.630;55.972;2023-05-23T00:32:17;24.20;;;12.95;;
60086;SDS011;45960;53.630;55.972;2023-05-23T00:33:18;25.70;;;13.55;;
60086;SDS011;45960;53.630;55.972;2023-05-23T00:34:21;24.10;;;12.95;;
60086;SDS011;45960;53.630;55.972;2023-05-23T00:35:22;26.85;;;14.18;;
60086;SDS011;45960;53.630;55.972;2023-05-23T00:36:25;26.92;;;13.90;;
60086;SDS011;45960;53.630;55.972;2023-05-23T00:37:26;26.42;;;13.98;;
60086;SDS011;45960;53.630;55.972;2023-05-23T00:38:28;30.75;;;13.77;;
60086;SDS011;45960;53.630;55.972;2023-05-23T00:39:29;26.42;;;14.27;;
60086;SDS011;45960;53.630;55.972;2023-05-23T00:40:31;25.20;;;13.13;;
60086;SDS011;45960;53.630;55.972;2023-05-23T00:41:32;25.38;;;13.88;;
60086;SDS011;45960;53.630;55.972;2023-05-23T00:42:33;26.20;;;13.18;;
60086;SDS011;45960;53.630;55.972;2023-05-23T00:43:34;23.40;;;14.00;;
60086;SDS011;45960;53.630;55.972;2023-05-23T00:44:35;22.13;;;13.70;;
60086;SDS011;45960;53.630;55.972;2023-05-23T00:45:37;24.02;;;13.85;;
60086;SDS011;45960;53.630;55.972;2023-05-23T00:46:38;23.98;;;12.82;;
60086;SDS011;45960;53.630;55.972;2023-05-23T00:47:42;25.73;;;12.93;;
60086;SDS011;45960;53.630;55.972;2023-05-23T00:48:47;24.27;;;14.10;;
60086;SDS011;45960;53.630;55.972;2023-05-23T00:49:48;25.27;;;12.93;;
60086;SDS011;45960;53.630;55.972;2023-05-23T00:50:49;25.25;;;12.98;;
60086;SDS011;45960;53.630;55.972;2023-05-23T00:51:50;27.08;;;14.48;;
60086;SDS011;45960;53.630;55.972;2023-05-23T00:52:52;26.08;;;13.73;;
60086;SDS011;45960;53.630;55.972;2023-05-23T00:53:53;22.17;;;12.70;;
60086;SDS011;45960;53.630;55.972;2023-05-23T00:54:54;27.10;;;13.40;;
60086;SDS011;45960;53.630;55.972;2023-05-23T00:55:55;25.20;;;12.50;;
60086;SDS011;45960;53.630;55.972;2023-05-23T00:56:57;24.33;;;13.68;;
60086;SDS011;45960;53.630;55.972;2023-05-23T00:57:59;27.20;;;13.75;;
60086;SDS011;45960;53.630;55.972;2023-05-23T00:59:00;23.27;;;12.88;;
60086;SDS011;45960;53.630;55.972;2023-05-23T01:00:01;26.65;;;13.60;;
60086;SDS011;45960;53.630;55.972;2023-05-23T01:01:07;23.00;;;12.15;;
60086;SDS011;45960;53.630;55.972;2023-05-23T01:02:08;23.35;;;12.98;;
60086;SDS011;45960;53.630;55.972;2023-05-23T01:03:10;23.77;;;13.30;;
60086;SDS011;45960;53.630;55.972;2023-05-23T01:04:17;22.77;;;13.40;;
60086;SDS011;45960;53.630;55.972;2023-05-23T01:05:19;23.13;;;12.93;;
60086;SDS011;45960;53.630;55.972;2023-05-23T01:06:24;20.55;;;12.20;;
60086;SDS011;45960;53.630;55.972;2023-05-23T01:07:25;25.42;;;13.18;;
60086;SDS011;45960;53.630;55.972;2023-05-23T01:08:27;22.40;;;13.80;;
60086;SDS011;45960;53.630;55.972;2023-05-23T01:09:29;24.00;;;13.20;;
60086;SDS011;45960;53.630;55.972;2023-05-23T01:10:31;25.27;;;14.02;;
60086;SDS011;45960;53.630;55.972;2023-05-23T01:12:19;20.63;;;12.25;;
60086;SDS011;45960;53.630;55.972;2023-05-23T01:13:15;24.85;;;13.45;;
60086;SDS011;45960;53.630;55.972;2023-05-23T01:14:37;23.63;;;12.70;;
60086;SDS011;45960;53.630;55.972;2023-05-23T01:16:04;20.55;;;12.13;;
60086;SDS011;45960;53.630;55.972;2023-05-23T01:17:12;23.10;;;12.63;;
60086;SDS011;45960;53.630;55.972;2023-05-23T01:18:22;21.55;;;11.85;;
60086;SDS011;45960;53.630;55.972;2023-05-23T01:19:47;23.25;;;12.68;;
60086;SDS011;45960;53.630;55.972;2023-05-23T01:20:58;24.00;;;12.68;;
60086;SDS011;45960;53.630;55.972;2023-05-23T01:22:10;21.90;;;12.95;;
60086;SDS011;45960;53.630;55.972;2023-05-23T01:25:43;22.98;;;12.35;;
60086;SDS011;45960;53.630;55.972;2023-05-23T01:27:04;22.50;;;12.23;;
60086;SDS011;45960;53.630;55.972;2023-05-23T01:28:04;20.38;;;12.30;;
60086;SDS011;45960;53.630;55.972;2023-05-23T01:29:10;25.13;;;12.48;;
60086;SDS011;45960;53.630;55.972;2023-05-23T01:30:18;23.35;;;12.32;;
60086;SDS011;45960;53.630;55.972;2023-05-23T01:31:20;25.92;;;11.43;;
60086;SDS011;45960;53.630;55.972;2023-05-23T01:32:27;30.00;;;13.00;;
60086;SDS011;45960;53.630;55.972;2023-05-23T01:33:28;23.70;;;13.05;;
60086;SDS011;45960;53.630;55.972;2023-05-23T01:34:33;26.00;;;13.10;;
60086;SDS011;45960;53.630;55.972;2023-05-23T01:35:35;29.00;;;13.38;;
60086;SDS011;45960;53.630;55.972;2023-05-23T01:36:41;21.92;;;12.40;;
60086;SDS011;45960;53.630;55.972;2023-05-23T01:37:43;23.38;;;12.45;;
60086;SDS011;45960;53.630;55.972;2023-05-23T01:38:44;22.10;;;12.80;;
60086;SDS011;45960;53.630;55.972;2023-05-23T01:39:45;23.75;;;12.80;;
60086;SDS011;45960;53.630;55.972;2023-05-23T01:40:46;25.73;;;13.20;;
60086;SDS011;45960;53.630;55.972;2023-05-23T01:41:48;28.00;;;13.73;;
60086;SDS011;45960;53.630;55.972;2023-05-23T01:42:51;21.30;;;11.52;;
60086;SDS011;45960;53.630;55.972;2023-05-23T01:43:55;24.70;;;12.27;;
60086;SDS011;45960;53.630;55.972;2023-05-23T01:44:56;23.98;;;12.20;;
60086;SDS011;45960;53.630;55.972;2023-05-23T01:45:58;26.33;;;12.55;;
60086;SDS011;45960;53.630;55.972;2023-05-23T01:47:04;24.98;;;13.65;;
60086;SDS011;45960;53.630;55.972;2023-05-23T01:48:07;22.90;;;11.80;;
60086;SDS011;45960;53.630;55.972;2023-05-23T01:49:11;23.40;;;12.85;;
60086;SDS011;45960;53.630;55.972;2023-05-23T01:50:15;22.85;;;12.50;;
60086;SDS011;45960;53.630;55.972;2023-05-23T01:51:17;20.10;;;12.55;;
60086;SDS011;45960;53.630;55.972;2023-05-23T01:52:18;23.50;;;11.98;;
60086;SDS011;45960;53.630;55.972;2023-05-23T01:53:21;20.23;;;11.75;;
60086;SDS011;45960;53.630;55.972;2023-05-23T01:54:23;22.15;;;11.98;;
60086;SDS011;45960;53.630;55.972;2023-05-23T01:55:25;25.15;;;13.10;;
60086;SDS011;45960;53.630;55.972;2023-05-23T01:56:27;21.40;;;12.35;;
60086;SDS011;45960;53.630;55.972;2023-05-23T01:57:29;24.73;;;11.93;;
60086;SDS011;45960;53.630;55.972;2023-05-23T01:58:30;21.90;;;12.90;;
60086;SDS011;45960;53.630;55.972;2023-05-23T01:59:31;21.98;;;11.60;;
60086;SDS011;45960;53.630;55.972;2023-05-23T02:00:32;28.00;;;12.77;;
60086;SDS011;45960;53.630;55.972;2023-05-23T02:01:34;24.33;;;11.95;;
60086;SDS011;45960;53.630;55.972;2023-05-23T02:02:35;68.47;;;13.70;;
60086;SDS011;45960;53.630;55.972;2023-05-23T02:03:36;21.60;;;11.13;;
60086;SDS011;45960;53.630;55.972;2023-05-23T02:04:45;19.70;;;10.40;;
60086;SDS011;45960;53.630;55.972;2023-05-23T02:05:46;20.98;;;12.45;;
60086;SDS011;45960;53.630;55.972;2023-05-23T02:06:47;26.85;;;11.63;;
60086;SDS011;45960;53.630;55.972;2023-05-23T02:07:48;30.80;;;12.25;;
60086;SDS011;45960;53.630;55.972;2023-05-23T02:08:51;22.35;;;11.38;;
60086;SDS011;45960;53.630;55.972;2023-05-23T02:09:53;27.40;;;11.70;;
60086;SDS011;45960;53.630;55.972;2023-05-23T02:10:54;26.98;;;12.48;;
60086;SDS011;45960;53.630;55.972;2023-05-23T02:11:55;33.70;;;12.73;;
60086;SDS011;45960;53.630;55.972;2023-05-23T02:12:56;20.55;;;11.25;;
60086;SDS011;45960;53.630;55.972;2023-05-23T02:13:58;29.95;;;12.52;;
60086;SDS011;45960;53.630;55.972;2023-05-23T02:14:59;25.00;;;12.30;;
60086;SDS011;45960;53.630;55.972;2023-05-23T02:16:00;20.90;;;12.45;;
60086;SDS011;45960;53.630;55.972;2023-05-23T02:17:01;44.70;;;13.18;;
60086;SDS011;45960;53.630;55.972;2023-05-23T02:18:04;75.18;;;14.52;;
60086;SDS011;45960;53.630;55.972;2023-05-23T02:19:05;24.38;;;12.00;;
60086;SDS011;45960;53.630;55.972;2023-05-23T02:20:07;27.60;;;10.73;;
60086;SDS011;45960;53.630;55.972;2023-05-23T02:21:09;22.48;;;10.98;;
60086;SDS011;45960;53.630;55.972;2023-05-23T02:22:11;22.25;;;12.18;;
60086;SDS011;45960;53.630;55.972;2023-05-23T02:23:13;24.50;;;11.25;;
60086;SDS011;45960;53.630;55.972;2023-05-23T02:24:14;23.55;;;11.63;;
60086;SDS011;45960;53.630;55.972;2023-05-23T02:25:15;17.80;;;11.25;;
60086;SDS011;45960;53.630;55.972;2023-05-23T02:26:16;19.00;;;10.65;;
60086;SDS011;45960;53.630;55.972;2023-05-23T02:27:18;22.30;;;11.80;;
60086;SDS011;45960;53.630;55.972;2023-05-23T02:28:19;18.73;;;11.98;;
60086;SDS011;45960;53.630;55.972;2023-05-23T02:29:23;19.10;;;11.57;;
60086;SDS011;45960;53.630;55.972;2023-05-23T02:30:24;19.92;;;12.13;;
60086;SDS011;45960;53.630;55.972;2023-05-23T02:31:25;19.90;;;11.35;;
60086;SDS011;45960;53.630;55.972;2023-05-23T02:32:27;22.40;;;11.77;;
60086;SDS011;45960;53.630;55.972;2023-05-23T02:33:30;17.63;;;11.40;;
60086;SDS011;45960;53.630;55.972;2023-05-23T02:34:31;22.83;;;11.63;;
60086;SDS011;45960;53.630;55.972;2023-05-23T02:35:33;19.58;;;11.13;;
60086;SDS011;45960;53.630;55.972;2023-05-23T02:36:34;21.85;;;10.52;;
60086;SDS011;45960;53.630;55.972;2023-05-23T02:37:36;21.27;;;11.23;;
60086;SDS011;45960;53.630;55.972;2023-05-23T02:38:38;17.65;;;11.73;;
60086;SDS011;45960;53.630;55.972;2023-05-23T02:39:39;26.20;;;11.25;;
60086;SDS011;45960;53.630;55.972;2023-05-23T02:40:40;23.33;;;11.82;;
60086;SDS011;45960;53.630;55.972;2023-05-23T02:41:41;18.92;;;11.40;;
60086;SDS011;45960;53.630;55.972;2023-05-23T02:42:42;20.60;;;11.75;;
60086;SDS011;45960;53.630;55.972;2023-05-23T02:43:45;20.33;;;11.60;;
60086;SDS011;45960;53.630;55.972;2023-05-23T02:44:47;20.73;;;12.02;;
60086;SDS011;45960;53.630;55.972;2023-05-23T02:45:48;18.50;;;11.65;;
60086;SDS011;45960;53.630;55.972;2023-05-23T02:46:49;22.25;;;12.60;;
60086;SDS011;45960;53.630;55.972;2023-05-23T02:47:52;19.33;;;11.73;;
60086;SDS011;45960;53.630;55.972;2023-05-23T02:48:53;19.50;;;12.55;;
60086;SDS011;45960;53.630;55.972;2023-05-23T02:49:54;28.33;;;11.95;;
60086;SDS011;45960;53.630;55.972;2023-05-23T02:50:55;33.58;;;11.90;;
60086;SDS011;45960;53.630;55.972;2023-05-23T02:51:56;20.67;;;11.38;;
60086;SDS011;45960;53.630;55.972;2023-05-23T02:52:57;23.38;;;11.07;;
60086;SDS011;45960;53.630;55.972;2023-05-23T02:53:58;34.00;;;12.45;;
60086;SDS011;45960;53.630;55.972;2023-05-23T02:55:00;29.83;;;12.13;;
60086;SDS011;45960;53.630;55.972;2023-05-23T02:56:03;29.45;;;10.85;;
60086;SDS011;45960;53.630;55.972;2023-05-23T02:57:05;18.20;;;11.05;;
60086;SDS011;45960;53.630;55.972;2023-05-23T02:58:09;24.05;;;11.68;;
60086;SDS011;45960;53.630;55.972;2023-05-23T02:59:10;22.05;;;11.57;;
60086;SDS011;45960;53.630;55.972;2023-05-23T03:00:12;42.47;;;13.65;;
60086;SDS011;45960;53.630;55.972;2023-05-23T03:01:16;21.98;;;11.40;;
60086;SDS011;45960;53.630;55.972;2023-05-23T03:02:17;33.55;;;12.95;;
60086;SDS011;45960;53.630;55.972;2023-05-23T03:03:18;25.08;;;11.77;;
60086;SDS011;45960;53.630;55.972;2023-05-23T03:04:20;20.95;;;11.07;;
60086;SDS011;45960;53.630;55.972;2023-05-23T03:05:21;28.42;;;12.07;;
60086;SDS011;45960;53.630;55.972;2023-05-23T03:06:22;26.77;;;11.63;;
60086;SDS011;45960;53.630;55.972;2023-05-23T03:07:23;21.02;;;11.60;;
60086;SDS011;45960;53.630;55.972;2023-05-23T03:08:25;19.45;;;11.82;;
60086;SDS011;45960;53.630;55.972;2023-05-23T03:09:26;25.52;;;11.98;;
60086;SDS011;45960;53.630;55.972;2023-05-23T03:10:27;21.95;;;11.63;;
60086;SDS011;45960;53.630;55.972;2023-05-23T03:11:29;20.63;;;11.88;;
60086;SDS011;45960;53.630;55.972;2023-05-23T03:12:30;21.13;;;11.98;;
60086;SDS011;45960;53.630;55.972;2023-05-23T03:13:31;21.95;;;12.45;;
60086;SDS011;45960;53.630;55.972;2023-05-23T03:14:32;19.55;;;12.15;;
60086;SDS011;45960;53.630;55.972;2023-05-23T03:15:33;20.13;;;11.52;;
60086;SDS011;45960;53.630;55.972;2023-05-23T03:16:35;21.20;;;12.90;;
60086;SDS011;45960;53.630;55.972;2023-05-23T03:17:35;28.45;;;13.07;;
60086;SDS011;45960;53.630;55.972;2023-05-23T03:18:37;26.42;;;12.55;;
60086;SDS011;45960;53.630;55.972;2023-05-23T03:19:38;19.70;;;11.02;;
60086;SDS011;45960;53.630;55.972;2023-05-23T03:20:39;19.00;;;11.73;;
60086;SDS011;45960;53.630;55.972;2023-05-23T03:21:40;29.75;;;12.30;;
60086;SDS011;45960;53.630;55.972;2023-05-23T03:22:41;20.38;;;11.80;;
60086;SDS011;45960;53.630;55.972;2023-05-23T03:23:44;28.52;;;12.65;;
60086;SDS011;45960;53.630;55.972;2023-05-23T03:24:45;28.02;;;13.55;;
60086;SDS011;45960;53.630;55.972;2023-05-23T03:25:47;22.02;;;11.93;;
60086;SDS011;45960;53.630;55.972;2023-05-23T03:26:48;22.85;;;11.45;;
60086;SDS011;45960;53.630;55.972;2023-05-23T03:27:49;21.10;;;11.75;;
60086;SDS011;45960;53.630;55.972;2023-05-23T03:28:50;18.83;;;11.57;;
60086;SDS011;45960;53.630;55.972;2023-05-23T03:29:53;19.23;;;12.20;;
60086;SDS011;45960;53.630;55.972;2023-05-23T03:30:54;23.30;;;12.50;;
60086;SDS011;45960;53.630;55.972;2023-05-23T03:31:55;23.15;;;11.45;;
60086;SDS011;45960;53.630;55.972;2023-05-23T03:32:56;18.98;;;11.80;;
60086;SDS011;45960;53.630;55.972;2023-05-23T03:33:57;17.88;;;11.48;;
60086;SDS011;45960;53.630;55.972;2023-05-23T03:34:58;22.75;;;11.90;;
60086;SDS011;45960;53.630;55.972;2023-05-23T03:35:59;23.02;;;11.55;;
60086;SDS011;45960;53.630;55.972;2023-05-23T03:37:01;23.20;;;11.75;;
60086;SDS011;45960;53.630;55.972;2023-05-23T03:38:02;27.92;;;12.55;;
60086;SDS011;45960;53.630;55.972;2023-05-23T03:39:03;19.83;;;11.95;;
60086;SDS011;45960;53.630;55.972;2023-05-23T03:40:05;22.88;;;11.68;;
60086;SDS011;45960;53.630;55.972;2023-05-23T03:41:08;30.67;;;12.45;;
60086;SDS011;45960;53.630;55.972;2023-05-23T03:42:09;24.95;;;12.02;;
60086;SDS011;45960;53.630;55.972;2023-05-23T03:43:11;19.48;;;11.15;;
60086;SDS011;45960;53.630;55.972;2023-05-23T03:44:14;17.58;;;11.63;;
60086;SDS011;45960;53.630;55.972;2023-05-23T03:45:15;20.98;;;11.10;;
60086;SDS011;45960;53.630;55.972;2023-05-23T03:46:17;18.08;;;10.60;;
60086;SDS011;45960;53.630;55.972;2023-05-23T03:47:18;18.77;;;11.30;;
60086;SDS011;45960;53.630;55.972;2023-05-23T03:48:20;20.83;;;11.38;;
60086;SDS011;45960;53.630;55.972;2023-05-23T03:49:21;22.88;;;11.88;;
60086;SDS011;45960;53.630;55.972;2023-05-23T03:50:23;18.80;;;11.35;;
60086;SDS011;45960;53.630;55.972;2023-05-23T03:51:24;22.08;;;11.50;;
60086;SDS011;45960;53.630;55.972;2023-05-23T03:52:25;20.08;;;11.90;;
60086;SDS011;45960;53.630;55.972;2023-05-23T03:53:26;21.63;;;12.65;;
60086;SDS011;45960;53.630;55.972;2023-05-23T03:54:28;26.85;;;11.63;;
60086;SDS011;45960;53.630;55.972;2023-05-23T03:55:29;14.88;;;10.18;;
60086;SDS011;45960;53.630;55.972;2023-05-23T03:56:32;16.85;;;10.32;;
60086;SDS011;45960;53.630;55.972;2023-05-23T03:57:33;19.90;;;11.50;;
60086;SDS011;45960;53.630;55.972;2023-05-23T03:58:34;21.17;;;11.50;;
60086;SDS011;45960;53.630;55.972;2023-05-23T03:59:41;18.35;;;11.40;;
60086;SDS011;45960;53.630;55.972;2023-05-23T04:00:45;23.85;;;11.82;;
60086;SDS011;45960;53.630;55.972;2023-05-23T04:01:48;28.30;;;10.90;;
60086;SDS011;45960;53.630;55.972;2023-05-23T04:02:49;25.65;;;11.35;;
60086;SDS011;45960;53.630;55.972;2023-05-23T04:03:53;17.05;;;9.73;;
60086;SDS011;45960;53.630;55.972;2023-05-23T04:04:55;28.33;;;10.95;;
60086;SDS011;45960;53.630;55.972;2023-05-23T04:05:58;43.20;;;12.57;;
60086;SDS011;45960;53.630;55.972;2023-05-23T04:07:00;19.13;;;9.18;;
60086;SDS011;45960;53.630;55.972;2023-05-23T04:08:02;18.92;;;10.48;;
60086;SDS011;45960;53.630;55.972;2023-05-23T04:09:04;18.67;;;10.27;;
60086;SDS011;45960;53.630;55.972;2023-05-23T04:10:09;22.15;;;10.23;;
60086;SDS011;45960;53.630;55.972;2023-05-23T04:11:10;16.35;;;10.27;;
60086;SDS011;45960;53.630;55.972;2023-05-23T04:12:15;13.93;;;9.98;;
60086;SDS011;45960;53.630;55.972;2023-05-23T04:13:16;15.38;;;10.02;;
60086;SDS011;45960;53.630;55.972;2023-05-23T04:14:17;18.33;;;9.68;;
60086;SDS011;45960;53.630;55.972;2023-05-23T04:15:23;17.30;;;9.77;;
60086;SDS011;45960;53.630;55.972;2023-05-23T04:16:28;24.67;;;10.55;;
60086;SDS011;45960;53.630;55.972;2023-05-23T04:17:33;16.15;;;9.40;;
60086;SDS011;45960;53.630;55.972;2023-05-23T04:18:35;16.38;;;9.95;;
60086;SDS011;45960;53.630;55.972;2023-05-23T04:19:39;31.10;;;11.77;;
60086;SDS011;45960;53.630;55.972;2023-05-23T04:20:40;40.83;;;17.90;;
60086;SDS011;45960;53.630;55.972;2023-05-23T04:21:41;24.58;;;14.27;;
60086;SDS011;45960;53.630;55.972;2023-05-23T04:22:45;35.40;;;16.08;;
60086;SDS011;45960;53.630;55.972;2023-05-23T04:23:46;31.52;;;16.25;;
60086;SDS011;45960;53.630;55.972;2023-05-23T04:24:48;26.50;;;13.13;;
60086;SDS011;45960;53.630;55.972;2023-05-23T04:25:49;17.63;;;11.20;;
60086;SDS011;45960;53.630;55.972;2023-05-23T04:27:05;15.93;;;9.57;;
60086;SDS011;45960;53.630;55.972;2023-05-23T04:28:07;25.05;;;9.05;;
60086;SDS011;45960;53.630;55.972;2023-05-23T04:29:10;15.40;;;8.93;;
60086;SDS011;45960;53.630;55.972;2023-05-23T04:30:11;17.17;;;8.60;;
60086;SDS011;45960;53.630;55.972;2023-05-23T04:31:16;16.83;;;8.40;;
60086;SDS011;45960;53.630;55.972;2023-05-23T04:32:17;18.55;;;9.18;;
60086;SDS011;45960;53.630;55.972;2023-05-23T04:33:19;20.00;;;9.45;;
60086;SDS011;45960;53.630;55.972;2023-05-23T04:34:20;17.80;;;8.82;;
60086;SDS011;45960;53.630;55.972;2023-05-23T04:35:22;18.83;;;9.27;;
60086;SDS011;45960;53.630;55.972;2023-05-23T04:36:23;19.25;;;9.40;;
60086;SDS011;45960;53.630;55.972;2023-05-23T04:37:28;17.00;;;8.45;;
60086;SDS011;45960;53.630;55.972;2023-05-23T04:38:29;16.80;;;7.75;;
60086;SDS011;45960;53.630;55.972;2023-05-23T04:39:31;16.52;;;7.90;;
60086;SDS011;45960;53.630;55.972;2023-05-23T04:40:50;14.15;;;8.57;;
60086;SDS011;45960;53.630;55.972;2023-05-23T04:42:30;12.95;;;8.27;;
60086;SDS011;45960;53.630;55.972;2023-05-23T04:43:47;22.30;;;9.48;;
60086;SDS011;45960;53.630;55.972;2023-05-23T04:45:07;14.60;;;7.47;;
60086;SDS011;45960;53.630;55.972;2023-05-23T04:46:30;12.65;;;7.32;;
60086;SDS011;45960;53.630;55.972;2023-05-23T04:48:03;12.45;;;8.13;;
60086;SDS011;45960;53.630;55.972;2023-05-23T04:49:15;16.83;;;8.25;;
60086;SDS011;45960;53.630;55.972;2023-05-23T04:50:17;13.23;;;7.70;;
60086;SDS011;45960;53.630;55.972;2023-05-23T04:51:19;13.65;;;8.10;;
60086;SDS011;45960;53.630;55.972;2023-05-23T04:52:27;16.95;;;8.10;;
60086;SDS011;45960;53.630;55.972;2023-05-23T04:53:30;13.35;;;7.57;;
60086;SDS011;45960;53.630;55.972;2023-05-23T04:54:31;14.43;;;8.15;;
60086;SDS011;45960;53.630;55.972;2023-05-23T04:55:35;17.25;;;8.38;;
60086;SDS011;45960;53.630;55.972;2023-05-23T04:56:37;14.00;;;7.10;;
60086;SDS011;45960;53.630;55.972;2023-05-23T04:57:40;17.38;;;8.02;;
60086;SDS011;45960;53.630;55.972;2023-05-23T04:58:41;14.98;;;8.38;;
60086;SDS011;45960;53.630;55.972;2023-05-23T04:59:45;14.10;;;8.18;;
60086;SDS011;45960;53.630;55.972;2023-05-23T05:00:46;14.50;;;9.00;;
60086;SDS011;45960;53.630;55.972;2023-05-23T05:01:49;16.02;;;8.57;;
60086;SDS011;45960;53.630;55.972;2023-05-23T05:02:51;22.10;;;12.40;;
60086;SDS011;45960;53.630;55.972;2023-05-23T05:03:52;21.63;;;9.85;;
60086;SDS011;45960;53.630;55.972;2023-05-23T05:04:53;27.27;;;12.05;;
60086;SDS011;45960;53.630;55.972;2023-05-23T05:05:54;24.90;;;10.20;;
60086;SDS011;45960;53.630;55.972;2023-05-23T05:06:55;17.23;;;8.75;;
60086;SDS011;45960;53.630;55.972;2023-05-23T05:07:56;17.30;;;8.45;;
60086;SDS011;45960;53.630;55.972;2023-05-23T05:08:58;14.13;;;7.70;;
60086;SDS011;45960;53.630;55.972;2023-05-23T05:09:59;18.52;;;7.78;;
60086;SDS011;45960;53.630;55.972;2023-05-23T05:11:00;14.45;;;8.15;;
60086;SDS011;45960;53.630;55.972;2023-05-23T05:12:01;19.92;;;8.05;;
60086;SDS011;45960;53.630;55.972;2023-05-23T05:13:03;13.18;;;8.10;;
60086;SDS011;45960;53.630;55.972;2023-05-23T05:14:13;22.65;;;8.35;;
60086;SDS011;45960;53.630;55.972;2023-05-23T05:15:17;20.73;;;8.52;;
60086;SDS011;45960;53.630;55.972;2023-05-23T05:16:21;31.38;;;8.70;;
60086;SDS011;45960;53.630;55.972;2023-05-23T05:17:24;17.42;;;8.30;;
60086;SDS011;45960;53.630;55.972;2023-05-23T05:18:38;15.40;;;7.60;;
60086;SDS011;45960;53.630;55.972;2023-05-23T05:19:40;14.02;;;6.55;;
60086;SDS011;45960;53.630;55.972;2023-05-23T05:20:41;15.40;;;8.02;;
60086;SDS011;45960;53.630;55.972;2023-05-23T05:21:42;19.88;;;8.15;;
60086;SDS011;45960;53.630;55.972;2023-05-23T05:22:43;14.00;;;7.38;;
60086;SDS011;45960;53.630;55.972;2023-05-23T05:23:46;16.33;;;7.22;;
60086;SDS011;45960;53.630;55.972;2023-05-23T05:24:50;9.48;;;6.35;;
60086;SDS011;45960;53.630;55.972;2023-05-23T05:25:51;15.05;;;7.07;;
60086;SDS011;45960;53.630;55.972;2023-05-23T05:26:52;14.70;;;7.20;;
60086;SDS011;45960;53.630;55.972;2023-05-23T05:27:54;19.27;;;7.35;;
60086;SDS011;45960;53.630;55.972;2023-05-23T05:28:55;11.80;;;7.35;;
60086;SDS011;45960;53.630;55.972;2023-05-23T05:29:58;11.35;;;7.20;;
60086;SDS011;45960;53.630;55.972;2023-05-23T05:31:06;13.13;;;7.15;;
60086;SDS011;45960;53.630;55.972;2023-05-23T05:32:10;12.77;;;7.38;;
60086;SDS011;45960;53.630;55.972;2023-05-23T05:33:11;14.52;;;7.32;;
60086;SDS011;45960;53.630;55.972;2023-05-23T05:34:13;14.63;;;7.45;;
60086;SDS011;45960;53.630;55.972;2023-05-23T05:35:14;12.98;;;6.90;;
60086;SDS011;45960;53.630;55.972;2023-05-23T05:36:18;11.45;;;6.63;;
60086;SDS011;45960;53.630;55.972;2023-05-23T05:37:20;10.88;;;7.18;;
60086;SDS011;45960;53.630;55.972;2023-05-23T05:38:22;13.40;;;7.03;;
60086;SDS011;45960;53.630;55.972;2023-05-23T05:39:23;14.80;;;6.57;;
60086;SDS011;45960;53.630;55.972;2023-05-23T05:40:25;15.75;;;7.00;;
60086;SDS011;45960;53.630;55.972;2023-05-23T05:41:26;12.63;;;6.65;;
60086;SDS011;45960;53.630;55.972;2023-05-23T05:42:28;11.63;;;6.68;;
60086;SDS011;45960;53.630;55.972;2023-05-23T05:43:29;12.70;;;6.53;;
60086;SDS011;45960;53.630;55.972;2023-05-23T05:44:30;15.07;;;7.50;;
60086;SDS011;45960;53.630;55.972;2023-05-23T05:45:31;39.13;;;8.25;;
60086;SDS011;45960;53.630;55.972;2023-05-23T05:46:33;14.60;;;7.03;;
60086;SDS011;45960;53.630;55.972;2023-05-23T05:47:34;12.85;;;6.75;;
60086;SDS011;45960;53.630;55.972;2023-05-23T05:48:36;11.98;;;6.13;;
60086;SDS011;45960;53.630;55.972;2023-05-23T05:49:41;13.68;;;6.75;;
60086;SDS011;45960;53.630;55.972;2023-05-23T05:50:42;16.00;;;7.00;;
60086;SDS011;45960;53.630;55.972;2023-05-23T05:51:46;13.00;;;5.75;;
60086;SDS011;45960;53.630;55.972;2023-05-23T05:52:48;10.50;;;6.38;;
60086;SDS011;45960;53.630;55.972;2023-05-23T05:53:49;22.00;;;6.45;;
60086;SDS011;45960;53.630;55.972;2023-05-23T05:54:51;14.55;;;7.40;;
60086;SDS011;45960;53.630;55.972;2023-05-23T05:55:52;12.40;;;7.22;;
60086;SDS011;45960;53.630;55.972;2023-05-23T05:56:54;17.27;;;6.47;;
60086;SDS011;45960;53.630;55.972;2023-05-23T05:57:55;20.05;;;7.07;;
60086;SDS011;45960;53.630;55.972;2023-05-23T05:58:57;12.57;;;6.78;;
60086;SDS011;45960;53.630;55.972;2023-05-23T05:59:58;9.95;;;5.80;;
60086;SDS011;45960;53.630;55.972;2023-05-23T06:01:00;13.38;;;5.10;;
60086;SDS011;45960;53.630;55.972;2023-05-23T06:02:01;17.02;;;6.20;;
60086;SDS011;45960;53.630;55.972;2023-05-23T06:03:02;10.55;;;5.78;;
60086;SDS011;45960;53.630;55.972;2023-05-23T06:04:12;9.70;;;5.32;;
60086;SDS011;45960;53.630;55.972;2023-05-23T06:05:14;17.55;;;5.82;;
60086;SDS011;45960;53.630;55.972;2023-05-23T06:06:16;10.65;;;5.32;;
60086;SDS011;45960;53.630;55.972;2023-05-23T06:07:17;11.55;;;5.63;;